sensor_id;sensor_type;location;lat;lon;timestamp;temperature;humidity
3940;DHT22;1984;48.312;9.244;2023-08-06T00:01:48;14.10;99.90
3940;DHT22;1984;48.312;9.244;2023-08-06T00:04:14;14.00;99.90
3940;DHT22;1984;48.312;9.244;2023-08-06T00:06:39;14.00;99.90
3940;DHT22;1984;48.312;9.244;2023-08-06T00:09:05;14.00;99.90
3940;DHT22;1984;48.312;9.244;2023-08-06T00:11:30;14.00;99.90
3940;DHT22;1984;48.312;9.244;2023-08-06T00:13:56;14.00;99.90
3940;DHT22;1984;48.312;9.244;2023-08-06T00:16:21;13.90;99.90
3940;DHT22;1984;48.312;9.244;2023-08-06T00:18:47;13.90;99.90
3940;DHT22;1984;48.312;9.244;2023-08-06T00:21:12;13.90;99.90
3940;DHT22;1984;48.312;9.244;2023-08-06T00:23:39;13.80;99.90
3940;DHT22;1984;48.312;9.244;2023-08-06T00:26:04;13.70;99.90
3940;DHT22;1984;48.312;9.244;2023-08-06T00:28:30;13.70;99.90
3940;DHT22;1984;48.312;9.244;2023-08-06T00:30:56;13.60;99.90
3940;DHT22;1984;48.312;9.244;2023-08-06T00:33:22;13.50;99.90
3940;DHT22;1984;48.312;9.244;2023-08-06T00:35:48;13.50;99.90
3940;DHT22;1984;48.312;9.244;2023-08-06T00:38:13;13.40;99.90
3940;DHT22;1984;48.312;9.244;2023-08-06T00:40:39;13.40;99.90
3940;DHT22;1984;48.312;9.244;2023-08-06T00:43:04;13.40;99.90
3940;DHT22;1984;48.312;9.244;2023-08-06T00:45:30;13.40;99.90
3940;DHT22;1984;48.312;9.244;2023-08-06T00:47:57;13.30;99.90
3940;DHT22;1984;48.312;9.244;2023-08-06T00:50:22;13.20;99.90
3940;DHT22;1984;48.312;9.244;2023-08-06T00:52:51;13.20;99.90
3940;DHT22;1984;48.312;9.244;2023-08-06T00:55:17;13.20;99.90
3940;DHT22;1984;48.312;9.244;2023-08-06T00:57:43;13.10;99.90
3940;DHT22;1984;48.312;9.244;2023-08-06T01:00:09;13.10;99.90
3940;DHT22;1984;48.312;9.244;2023-08-06T01:02:34;13.00;99.90
3940;DHT22;1984;48.312;9.244;2023-08-06T01:05:00;12.90;99.90
3940;DHT22;1984;48.312;9.244;2023-08-06T01:07:51;12.80;99.90
3940;DHT22;1984;48.312;9.244;2023-08-06T01:10:34;12.80;99.90
3940;DHT22;1984;48.312;9.244;2023-08-06T01:13:10;12.70;99.90
3940;DHT22;1984;48.312;9.244;2023-08-06T01:15:43;12.70;99.90
3940;DHT22;1984;48.312;9.244;2023-08-06T01:18:10;12.60;99.90
3940;DHT22;1984;48.312;9.244;2023-08-06T01:20:36;12.50;99.90
3940;DHT22;1984;48.312;9.244;2023-08-06T01:23:01;12.50;99.90
3940;DHT22;1984;48.312;9.244;2023-08-06T01:25:33;12.40;99.90
3940;DHT22;1984;48.312;9.244;2023-08-06T01:28:15;12.40;99.90
3940;DHT22;1984;48.312;9.244;2023-08-06T01:30:44;12.40;99.90
3940;DHT22;1984;48.312;9.244;2023-08-06T01:33:16;12.40;99.90
3940;DHT22;1984;48.312;9.244;2023-08-06T01:35:43;12.40;99.90
3940;DHT22;1984;48.312;9.244;2023-08-06T01:38:09;12.50;99.90
3940;DHT22;1984;48.312;9.244;2023-08-06T01:40:35;12.40;99.90
3940;DHT22;1984;48.312;9.244;2023-08-06T01:43:00;12.40;99.90
3940;DHT22;1984;48.312;9.244;2023-08-06T01:45:26;12.40;99.90
3940;DHT22;1984;48.312;9.244;2023-08-06T01:47:51;12.30;99.90
3940;DHT22;1984;48.312;9.244;2023-08-06T01:50:17;12.40;99.90
3940;DHT22;1984;48.312;9.244;2023-08-06T01:52:42;12.40;99.90
3940;DHT22;1984;48.312;9.244;2023-08-06T01:55:08;12.50;99.90
3940;DHT22;1984;48.312;9.244;2023-08-06T01:57:33;12.50;99.90
3940;DHT22;1984;48.312;9.244;2023-08-06T01:59:59;12.50;99.90
3940;DHT22;1984;48.312;9.244;2023-08-06T02:02:24;12.50;99.90
3940;DHT22;1984;48.312;9.244;2023-08-06T02:04:50;12.50;99.90
3940;DHT22;1984;48.312;9.244;2023-08-06T02:07:15;12.50;99.90
3940;DHT22;1984;48.312;9.244;2023-08-06T02:09:41;12.40;99.90
3940;DHT22;1984;48.312;9.244;2023-08-06T02:12:07;12.40;99.90
3940;DHT22;1984;48.312;9.244;2023-08-06T02:14:32;12.40;99.90
3940;DHT22;1984;48.312;9.244;2023-08-06T02:16:58;12.30;99.90
3940;DHT22;1984;48.312;9.244;2023-08-06T02:19:23;12.30;99.90
3940;DHT22;1984;48.312;9.244;2023-08-06T02:21:49;12.20;99.90
3940;DHT22;1984;48.312;9.244;2023-08-06T02:24:14;12.20;99.90
3940;DHT22;1984;48.312;9.244;2023-08-06T02:26:40;12.20;99.90
3940;DHT22;1984;48.312;9.244;2023-08-06T02:29:05;12.10;99.90
3940;DHT22;1984;48.312;9.244;2023-08-06T02:31:31;12.10;99.90
3940;DHT22;1984;48.312;9.244;2023-08-06T02:33:56;12.10;99.90
3940;DHT22;1984;48.312;9.244;2023-08-06T02:36:23;12.00;99.90
3940;DHT22;1984;48.312;9.244;2023-08-06T02:38:49;12.00;99.90
3940;DHT22;1984;48.312;9.244;2023-08-06T02:41:15;12.00;99.90
3940;DHT22;1984;48.312;9.244;2023-08-06T02:43:40;12.00;99.90
3940;DHT22;1984;48.312;9.244;2023-08-06T02:46:06;12.00;99.90
3940;DHT22;1984;48.312;9.244;2023-08-06T02:48:31;11.90;99.90
3940;DHT22;1984;48.312;9.244;2023-08-06T02:50:58;11.80;99.90
3940;DHT22;1984;48.312;9.244;2023-08-06T02:53:24;11.80;99.90
3940;DHT22;1984;48.312;9.244;2023-08-06T02:55:50;11.80;99.90
3940;DHT22;1984;48.312;9.244;2023-08-06T02:58:16;11.80;99.90
3940;DHT22;1984;48.312;9.244;2023-08-06T03:00:42;11.70;99.90
3940;DHT22;1984;48.312;9.244;2023-08-06T03:03:08;11.70;99.90
3940;DHT22;1984;48.312;9.244;2023-08-06T03:05:34;11.70;99.90
3940;DHT22;1984;48.312;9.244;2023-08-06T03:08:00;11.70;99.90
3940;DHT22;1984;48.312;9.244;2023-08-06T03:10:26;11.70;99.90
3940;DHT22;1984;48.312;9.244;2023-08-06T03:12:52;11.70;99.90
3940;DHT22;1984;48.312;9.244;2023-08-06T03:15:17;11.80;99.90
3940;DHT22;1984;48.312;9.244;2023-08-06T03:17:43;11.70;99.90
3940;DHT22;1984;48.312;9.244;2023-08-06T03:20:09;11.80;99.90
3940;DHT22;1984;48.312;9.244;2023-08-06T03:22:35;11.70;99.90
3940;DHT22;1984;48.312;9.244;2023-08-06T03:25:01;11.70;99.90
3940;DHT22;1984;48.312;9.244;2023-08-06T03:27:26;11.70;99.90
3940;DHT22;1984;48.312;9.244;2023-08-06T03:29:52;11.70;99.90
3940;DHT22;1984;48.312;9.244;2023-08-06T03:32:17;11.70;99.90
3940;DHT22;1984;48.312;9.244;2023-08-06T03:34:43;11.60;99.90
3940;DHT22;1984;48.312;9.244;2023-08-06T03:37:08;11.60;99.90
3940;DHT22;1984;48.312;9.244;2023-08-06T03:39:34;11.70;99.90
3940;DHT22;1984;48.312;9.244;2023-08-06T03:41:59;11.70;99.90
3940;DHT22;1984;48.312;9.244;2023-08-06T03:44:25;11.70;99.90
3940;DHT22;1984;48.312;9.244;2023-08-06T03:46:52;11.80;99.90
3940;DHT22;1984;48.312;9.244;2023-08-06T03:49:17;11.80;99.90
3940;DHT22;1984;48.312;9.244;2023-08-06T03:51:43;11.90;99.90
3940;DHT22;1984;48.312;9.244;2023-08-06T03:54:08;11.90;99.90
3940;DHT22;1984;48.312;9.244;2023-08-06T03:56:34;11.90;99.90
3940;DHT22;1984;48.312;9.244;2023-08-06T03:58:59;12.00;99.90
3940;DHT22;1984;48.312;9.244;2023-08-06T04:01:25;12.00;99.90
3940;DHT22;1984;48.312;9.244;2023-08-06T04:03:50;12.00;99.90
3940;DHT22;1984;48.312;9.244;2023-08-06T04:06:16;11.90;99.90
3940;DHT22;1984;48.312;9.244;2023-08-06T04:08:41;11.90;99.90
3940;DHT22;1984;48.312;9.244;2023-08-06T04:11:07;11.90;99.90
3940;DHT22;1984;48.312;9.244;2023-08-06T04:13:33;11.90;99.90
3940;DHT22;1984;48.312;9.244;2023-08-06T04:16:02;12.00;99.90
3940;DHT22;1984;48.312;9.244;2023-08-06T04:18:28;12.00;99.90
3940;DHT22;1984;48.312;9.244;2023-08-06T04:20:54;12.10;99.90
3940;DHT22;1984;48.312;9.244;2023-08-06T04:23:20;12.10;99.90
3940;DHT22;1984;48.312;9.244;2023-08-06T04:25:46;12.10;99.90
3940;DHT22;1984;48.312;9.244;2023-08-06T04:28:12;12.10;99.90
3940;DHT22;1984;48.312;9.244;2023-08-06T04:30:37;12.20;99.90
3940;DHT22;1984;48.312;9.244;2023-08-06T04:33:03;12.20;99.90
3940;DHT22;1984;48.312;9.244;2023-08-06T04:35:29;12.20;99.90
3940;DHT22;1984;48.312;9.244;2023-08-06T04:37:54;12.20;99.90
3940;DHT22;1984;48.312;9.244;2023-08-06T04:40:20;12.20;99.90
3940;DHT22;1984;48.312;9.244;2023-08-06T04:42:45;12.30;99.90
3940;DHT22;1984;48.312;9.244;2023-08-06T04:45:11;12.30;99.90
3940;DHT22;1984;48.312;9.244;2023-08-06T04:47:36;12.30;99.90
3940;DHT22;1984;48.312;9.244;2023-08-06T04:50:02;12.30;99.90
3940;DHT22;1984;48.312;9.244;2023-08-06T04:52:27;12.30;99.90
3940;DHT22;1984;48.312;9.244;2023-08-06T04:54:54;12.30;99.90
3940;DHT22;1984;48.312;9.244;2023-08-06T04:57:20;12.40;99.90
3940;DHT22;1984;48.312;9.244;2023-08-06T04:59:46;12.40;99.90
3940;DHT22;1984;48.312;9.244;2023-08-06T05:02:11;12.40;99.90
3940;DHT22;1984;48.312;9.244;2023-08-06T05:04:37;12.50;99.90
3940;DHT22;1984;48.312;9.244;2023-08-06T05:07:03;12.50;99.90
3940;DHT22;1984;48.312;9.244;2023-08-06T05:09:28;12.50;99.90
3940;DHT22;1984;48.312;9.244;2023-08-06T05:11:54;12.50;99.90
3940;DHT22;1984;48.312;9.244;2023-08-06T05:14:20;12.50;99.90
3940;DHT22;1984;48.312;9.244;2023-08-06T05:16:45;12.50;99.90
3940;DHT22;1984;48.312;9.244;2023-08-06T05:19:11;12.40;99.90
3940;DHT22;1984;48.312;9.244;2023-08-06T05:21:36;12.40;99.90
3940;DHT22;1984;48.312;9.244;2023-08-06T05:24:02;12.30;99.90
3940;DHT22;1984;48.312;9.244;2023-08-06T05:26:27;12.30;99.90
3940;DHT22;1984;48.312;9.244;2023-08-06T05:28:53;12.40;99.90
3940;DHT22;1984;48.312;9.244;2023-08-06T05:31:18;12.40;99.90
3940;DHT22;1984;48.312;9.244;2023-08-06T05:33:44;12.40;99.90
3940;DHT22;1984;48.312;9.244;2023-08-06T05:36:09;12.50;99.90
3940;DHT22;1984;48.312;9.244;2023-08-06T05:38:35;12.60;99.90
3940;DHT22;1984;48.312;9.244;2023-08-06T05:41:00;12.90;99.90
3940;DHT22;1984;48.312;9.244;2023-08-06T05:43:26;13.00;99.90
3940;DHT22;1984;48.312;9.244;2023-08-06T05:45:51;13.10;99.90
3940;DHT22;1984;48.312;9.244;2023-08-06T05:48:17;13.20;99.90
3940;DHT22;1984;48.312;9.244;2023-08-06T05:50:43;13.40;99.90
3940;DHT22;1984;48.312;9.244;2023-08-06T05:53:08;13.60;99.90
3940;DHT22;1984;48.312;9.244;2023-08-06T05:55:34;13.80;99.90
3940;DHT22;1984;48.312;9.244;2023-08-06T05:58:00;14.00;99.90
3940;DHT22;1984;48.312;9.244;2023-08-06T06:00:26;14.10;99.90
3940;DHT22;1984;48.312;9.244;2023-08-06T06:02:51;14.10;99.90
3940;DHT22;1984;48.312;9.244;2023-08-06T06:05:17;14.00;99.90
3940;DHT22;1984;48.312;9.244;2023-08-06T06:07:43;13.90;99.90
3940;DHT22;1984;48.312;9.244;2023-08-06T06:10:08;14.00;99.90
3940;DHT22;1984;48.312;9.244;2023-08-06T06:12:34;14.00;99.90
3940;DHT22;1984;48.312;9.244;2023-08-06T06:14:59;14.00;99.90
3940;DHT22;1984;48.312;9.244;2023-08-06T06:17:26;14.00;99.90
3940;DHT22;1984;48.312;9.244;2023-08-06T06:19:52;13.90;99.90
3940;DHT22;1984;48.312;9.244;2023-08-06T06:22:18;13.80;99.90
3940;DHT22;1984;48.312;9.244;2023-08-06T06:24:43;13.70;99.90
3940;DHT22;1984;48.312;9.244;2023-08-06T06:27:09;13.60;99.90
3940;DHT22;1984;48.312;9.244;2023-08-06T06:29:34;13.50;99.90
3940;DHT22;1984;48.312;9.244;2023-08-06T06:32:00;13.50;99.90
3940;DHT22;1984;48.312;9.244;2023-08-06T06:34:25;13.50;99.90
3940;DHT22;1984;48.312;9.244;2023-08-06T06:36:51;13.60;99.90
3940;DHT22;1984;48.312;9.244;2023-08-06T06:39:18;13.60;99.90
3940;DHT22;1984;48.312;9.244;2023-08-06T06:41:43;13.60;99.90
3940;DHT22;1984;48.312;9.244;2023-08-06T06:44:09;13.70;99.90
3940;DHT22;1984;48.312;9.244;2023-08-06T06:46:35;13.80;99.90
3940;DHT22;1984;48.312;9.244;2023-08-06T06:49:00;13.80;99.90
3940;DHT22;1984;48.312;9.244;2023-08-06T06:51:26;13.90;99.90
3940;DHT22;1984;48.312;9.244;2023-08-06T06:53:51;14.00;99.90
3940;DHT22;1984;48.312;9.244;2023-08-06T06:56:17;14.00;99.90
3940;DHT22;1984;48.312;9.244;2023-08-06T06:58:42;14.10;99.90
3940;DHT22;1984;48.312;9.244;2023-08-06T07:01:09;14.00;99.90
3940;DHT22;1984;48.312;9.244;2023-08-06T07:03:35;14.00;99.90
3940;DHT22;1984;48.312;9.244;2023-08-06T07:06:01;13.90;99.90
3940;DHT22;1984;48.312;9.244;2023-08-06T07:08:27;13.90;99.90
3940;DHT22;1984;48.312;9.244;2023-08-06T07:11:02;13.90;99.90
3940;DHT22;1984;48.312;9.244;2023-08-06T07:13:28;13.80;99.90
3940;DHT22;1984;48.312;9.244;2023-08-06T07:15:54;13.90;99.90
3940;DHT22;1984;48.312;9.244;2023-08-06T07:18:20;13.90;99.90
3940;DHT22;1984;48.312;9.244;2023-08-06T07:20:50;13.90;99.90
3940;DHT22;1984;48.312;9.244;2023-08-06T07:23:16;13.90;99.90
3940;DHT22;1984;48.312;9.244;2023-08-06T07:25:42;14.00;99.90
3940;DHT22;1984;48.312;9.244;2023-08-06T07:28:08;14.20;99.90
3940;DHT22;1984;48.312;9.244;2023-08-06T07:30:33;14.50;99.90
3940;DHT22;1984;48.312;9.244;2023-08-06T07:32:59;14.60;99.90
3940;DHT22;1984;48.312;9.244;2023-08-06T07:35:24;14.60;99.90
3940;DHT22;1984;48.312;9.244;2023-08-06T07:37:50;14.40;99.90
3940;DHT22;1984;48.312;9.244;2023-08-06T07:40:15;14.30;99.90
3940;DHT22;1984;48.312;9.244;2023-08-06T07:42:41;14.30;99.90
3940;DHT22;1984;48.312;9.244;2023-08-06T07:45:07;14.20;99.90
3940;DHT22;1984;48.312;9.244;2023-08-06T07:47:33;14.20;99.90
3940;DHT22;1984;48.312;9.244;2023-08-06T07:49:58;14.10;99.90
3940;DHT22;1984;48.312;9.244;2023-08-06T07:52:24;13.90;99.90
3940;DHT22;1984;48.312;9.244;2023-08-06T07:54:50;13.90;99.90
3940;DHT22;1984;48.312;9.244;2023-08-06T07:57:16;13.90;99.90
3940;DHT22;1984;48.312;9.244;2023-08-06T07:59:42;14.00;99.90
3940;DHT22;1984;48.312;9.244;2023-08-06T08:02:07;14.20;99.90
3940;DHT22;1984;48.312;9.244;2023-08-06T08:04:33;14.40;99.90
3940;DHT22;1984;48.312;9.244;2023-08-06T08:06:58;14.70;99.90
3940;DHT22;1984;48.312;9.244;2023-08-06T08:09:24;14.90;99.90
3940;DHT22;1984;48.312;9.244;2023-08-06T08:11:49;14.90;99.90
3940;DHT22;1984;48.312;9.244;2023-08-06T08:14:15;14.80;99.90
3940;DHT22;1984;48.312;9.244;2023-08-06T08:16:41;14.60;99.90
3940;DHT22;1984;48.312;9.244;2023-08-06T08:19:06;14.30;99.90
3940;DHT22;1984;48.312;9.244;2023-08-06T08:21:32;14.10;99.90
3940;DHT22;1984;48.312;9.244;2023-08-06T08:24:00;14.00;99.90
3940;DHT22;1984;48.312;9.244;2023-08-06T08:26:25;13.90;99.90
3940;DHT22;1984;48.312;9.244;2023-08-06T08:28:53;13.70;99.90
3940;DHT22;1984;48.312;9.244;2023-08-06T08:31:19;13.60;99.90
3940;DHT22;1984;48.312;9.244;2023-08-06T08:33:44;13.60;99.90
3940;DHT22;1984;48.312;9.244;2023-08-06T08:36:10;13.50;99.90
3940;DHT22;1984;48.312;9.244;2023-08-06T08:38:35;13.40;99.90
3940;DHT22;1984;48.312;9.244;2023-08-06T08:41:01;13.40;99.90
3940;DHT22;1984;48.312;9.244;2023-08-06T08:43:27;13.30;99.90
3940;DHT22;1984;48.312;9.244;2023-08-06T08:45:53;13.30;99.90
3940;DHT22;1984;48.312;9.244;2023-08-06T08:48:26;13.30;99.90
3940;DHT22;1984;48.312;9.244;2023-08-06T08:50:53;13.30;99.90
3940;DHT22;1984;48.312;9.244;2023-08-06T08:53:18;13.30;99.90
3940;DHT22;1984;48.312;9.244;2023-08-06T08:55:48;13.30;99.90
3940;DHT22;1984;48.312;9.244;2023-08-06T08:58:14;13.40;99.90
3940;DHT22;1984;48.312;9.244;2023-08-06T09:00:42;13.40;99.90
3940;DHT22;1984;48.312;9.244;2023-08-06T09:03:07;13.30;99.90
3940;DHT22;1984;48.312;9.244;2023-08-06T09:05:33;13.40;99.90
3940;DHT22;1984;48.312;9.244;2023-08-06T09:08:02;13.60;99.90
3940;DHT22;1984;48.312;9.244;2023-08-06T09:10:28;13.70;99.90
3940;DHT22;1984;48.312;9.244;2023-08-06T09:12:58;13.70;99.90
3940;DHT22;1984;48.312;9.244;2023-08-06T09:15:26;13.70;99.90
3940;DHT22;1984;48.312;9.244;2023-08-06T09:17:54;13.70;99.90
3940;DHT22;1984;48.312;9.244;2023-08-06T09:20:20;13.70;99.90
3940;DHT22;1984;48.312;9.244;2023-08-06T09:22:45;13.70;99.90
3940;DHT22;1984;48.312;9.244;2023-08-06T09:25:23;13.70;99.90
3940;DHT22;1984;48.312;9.244;2023-08-06T09:27:52;13.80;99.90
3940;DHT22;1984;48.312;9.244;2023-08-06T09:30:35;13.90;99.90
3940;DHT22;1984;48.312;9.244;2023-08-06T09:33:00;14.00;99.90
3940;DHT22;1984;48.312;9.244;2023-08-06T09:35:30;14.00;99.90
3940;DHT22;1984;48.312;9.244;2023-08-06T09:38:09;14.00;99.90
3940;DHT22;1984;48.312;9.244;2023-08-06T09:40:36;14.00;99.90
3940;DHT22;1984;48.312;9.244;2023-08-06T09:43:02;14.00;99.90
3940;DHT22;1984;48.312;9.244;2023-08-06T09:45:36;14.20;99.90
3940;DHT22;1984;48.312;9.244;2023-08-06T09:48:07;14.20;99.90
3940;DHT22;1984;48.312;9.244;2023-08-06T09:50:35;14.30;99.90
3940;DHT22;1984;48.312;9.244;2023-08-06T09:53:03;14.40;99.90
3940;DHT22;1984;48.312;9.244;2023-08-06T09:55:29;14.30;99.90
3940;DHT22;1984;48.312;9.244;2023-08-06T09:57:54;14.40;99.90
3940;DHT22;1984;48.312;9.244;2023-08-06T10:00:20;14.50;99.90
3940;DHT22;1984;48.312;9.244;2023-08-06T10:02:46;14.60;99.90
3940;DHT22;1984;48.312;9.244;2023-08-06T10:05:13;14.40;99.90
3940;DHT22;1984;48.312;9.244;2023-08-06T10:07:39;14.20;99.90
3940;DHT22;1984;48.312;9.244;2023-08-06T10:10:06;14.10;99.90
3940;DHT22;1984;48.312;9.244;2023-08-06T10:12:39;14.00;99.90
3940;DHT22;1984;48.312;9.244;2023-08-06T10:15:09;13.80;99.90
3940;DHT22;1984;48.312;9.244;2023-08-06T10:17:37;13.80;99.90
3940;DHT22;1984;48.312;9.244;2023-08-06T10:20:05;13.80;99.90
3940;DHT22;1984;48.312;9.244;2023-08-06T10:22:32;13.80;99.90
3940;DHT22;1984;48.312;9.244;2023-08-06T10:24:59;13.60;99.90
3940;DHT22;1984;48.312;9.244;2023-08-06T10:27:34;13.60;99.90
3940;DHT22;1984;48.312;9.244;2023-08-06T10:30:29;13.40;99.90
3940;DHT22;1984;48.312;9.244;2023-08-06T10:33:00;13.40;99.90
3940;DHT22;1984;48.312;9.244;2023-08-06T10:35:37;13.20;99.90
3940;DHT22;1984;48.312;9.244;2023-08-06T10:38:09;13.20;99.90
3940;DHT22;1984;48.312;9.244;2023-08-06T10:40:48;13.20;99.90
3940;DHT22;1984;48.312;9.244;2023-08-06T10:45:58;13.20;99.90
3940;DHT22;1984;48.312;9.244;2023-08-06T10:48:38;13.20;99.90
3940;DHT22;1984;48.312;9.244;2023-08-06T10:51:08;13.30;99.90
3940;DHT22;1984;48.312;9.244;2023-08-06T10:53:33;13.30;99.90
3940;DHT22;1984;48.312;9.244;2023-08-06T10:55:59;13.30;99.90
3940;DHT22;1984;48.312;9.244;2023-08-06T10:58:25;13.30;99.90
3940;DHT22;1984;48.312;9.244;2023-08-06T11:00:51;13.30;99.90
3940;DHT22;1984;48.312;9.244;2023-08-06T11:03:17;13.30;99.90
3940;DHT22;1984;48.312;9.244;2023-08-06T11:05:48;13.30;99.90
3940;DHT22;1984;48.312;9.244;2023-08-06T11:08:26;13.30;99.90
3940;DHT22;1984;48.312;9.244;2023-08-06T11:10:52;13.20;99.90
3940;DHT22;1984;48.312;9.244;2023-08-06T11:13:17;13.30;99.90
3940;DHT22;1984;48.312;9.244;2023-08-06T11:15:46;13.30;99.90
3940;DHT22;1984;48.312;9.244;2023-08-06T11:18:12;13.30;99.90
3940;DHT22;1984;48.312;9.244;2023-08-06T11:20:39;13.40;99.90
3940;DHT22;1984;48.312;9.244;2023-08-06T11:23:05;13.50;99.90
3940;DHT22;1984;48.312;9.244;2023-08-06T11:25:31;13.60;99.90
3940;DHT22;1984;48.312;9.244;2023-08-06T11:27:56;13.60;99.90
3940;DHT22;1984;48.312;9.244;2023-08-06T11:30:22;13.70;99.90
3940;DHT22;1984;48.312;9.244;2023-08-06T11:32:48;13.80;99.90
3940;DHT22;1984;48.312;9.244;2023-08-06T11:35:15;14.00;99.90
3940;DHT22;1984;48.312;9.244;2023-08-06T11:37:45;14.20;99.90
3940;DHT22;1984;48.312;9.244;2023-08-06T11:40:14;14.30;99.90
3940;DHT22;1984;48.312;9.244;2023-08-06T11:42:40;14.40;99.90
3940;DHT22;1984;48.312;9.244;2023-08-06T11:45:08;14.30;99.90
3940;DHT22;1984;48.312;9.244;2023-08-06T11:47:38;14.30;99.90
3940;DHT22;1984;48.312;9.244;2023-08-06T11:50:06;14.40;99.90
3940;DHT22;1984;48.312;9.244;2023-08-06T11:52:31;14.40;99.90
3940;DHT22;1984;48.312;9.244;2023-08-06T11:57:36;14.20;99.90
3940;DHT22;1984;48.312;9.244;2023-08-06T12:02:34;14.20;99.90
3940;DHT22;1984;48.312;9.244;2023-08-06T12:05:17;14.20;99.90
3940;DHT22;1984;48.312;9.244;2023-08-06T12:07:58;14.30;99.90
3940;DHT22;1984;48.312;9.244;2023-08-06T12:10:26;14.20;99.90
3940;DHT22;1984;48.312;9.244;2023-08-06T12:12:51;14.00;99.90
3940;DHT22;1984;48.312;9.244;2023-08-06T12:15:17;13.80;99.90
3940;DHT22;1984;48.312;9.244;2023-08-06T12:17:43;13.70;99.90
3940;DHT22;1984;48.312;9.244;2023-08-06T12:20:09;13.70;99.90
3940;DHT22;1984;48.312;9.244;2023-08-06T12:22:36;13.70;99.90
3940;DHT22;1984;48.312;9.244;2023-08-06T12:25:07;13.60;99.90
3940;DHT22;1984;48.312;9.244;2023-08-06T12:27:37;13.50;99.90
3940;DHT22;1984;48.312;9.244;2023-08-06T12:30:03;13.50;99.90
3940;DHT22;1984;48.312;9.244;2023-08-06T12:32:31;13.40;99.90
3940;DHT22;1984;48.312;9.244;2023-08-06T12:34:57;13.30;99.90
3940;DHT22;1984;48.312;9.244;2023-08-06T12:37:24;13.20;99.90
3940;DHT22;1984;48.312;9.244;2023-08-06T12:39:50;13.20;99.90
3940;DHT22;1984;48.312;9.244;2023-08-06T12:42:16;13.30;99.90
3940;DHT22;1984;48.312;9.244;2023-08-06T12:44:41;13.40;99.90
3940;DHT22;1984;48.312;9.244;2023-08-06T12:47:07;13.40;99.90
3940;DHT22;1984;48.312;9.244;2023-08-06T12:49:33;13.30;99.90
3940;DHT22;1984;48.312;9.244;2023-08-06T12:51:59;13.40;99.90
3940;DHT22;1984;48.312;9.244;2023-08-06T12:54:25;13.60;99.90
3940;DHT22;1984;48.312;9.244;2023-08-06T12:56:51;14.00;99.90
3940;DHT22;1984;48.312;9.244;2023-08-06T12:59:17;14.30;99.90
3940;DHT22;1984;48.312;9.244;2023-08-06T13:01:44;14.20;99.90
3940;DHT22;1984;48.312;9.244;2023-08-06T13:04:10;14.00;99.90
3940;DHT22;1984;48.312;9.244;2023-08-06T13:06:36;13.80;99.90
3940;DHT22;1984;48.312;9.244;2023-08-06T13:09:11;13.80;99.90
3940;DHT22;1984;48.312;9.244;2023-08-06T13:11:39;13.80;99.90
3940;DHT22;1984;48.312;9.244;2023-08-06T13:14:08;13.90;99.90
3940;DHT22;1984;48.312;9.244;2023-08-06T13:16:34;14.00;99.90
3940;DHT22;1984;48.312;9.244;2023-08-06T13:19:00;14.00;99.90
3940;DHT22;1984;48.312;9.244;2023-08-06T13:21:34;13.90;99.90
3940;DHT22;1984;48.312;9.244;2023-08-06T13:24:01;13.80;99.90
3940;DHT22;1984;48.312;9.244;2023-08-06T13:26:28;13.80;99.90
3940;DHT22;1984;48.312;9.244;2023-08-06T13:28:55;13.80;99.90
3940;DHT22;1984;48.312;9.244;2023-08-06T13:31:20;13.90;99.90
3940;DHT22;1984;48.312;9.244;2023-08-06T13:33:46;13.90;99.90
3940;DHT22;1984;48.312;9.244;2023-08-06T13:36:13;13.90;99.90
3940;DHT22;1984;48.312;9.244;2023-08-06T13:38:39;13.80;99.90
3940;DHT22;1984;48.312;9.244;2023-08-06T13:41:04;13.80;99.90
3940;DHT22;1984;48.312;9.244;2023-08-06T13:43:31;13.80;99.90
3940;DHT22;1984;48.312;9.244;2023-08-06T13:45:56;13.90;99.90
3940;DHT22;1984;48.312;9.244;2023-08-06T13:48:22;14.00;99.90
3940;DHT22;1984;48.312;9.244;2023-08-06T13:50:48;14.00;99.90
3940;DHT22;1984;48.312;9.244;2023-08-06T13:53:14;14.20;99.90
3940;DHT22;1984;48.312;9.244;2023-08-06T13:55:39;14.30;99.90
3940;DHT22;1984;48.312;9.244;2023-08-06T13:58:05;14.10;99.90
3940;DHT22;1984;48.312;9.244;2023-08-06T14:00:30;14.10;99.90
3940;DHT22;1984;48.312;9.244;2023-08-06T14:02:56;14.20;99.90
3940;DHT22;1984;48.312;9.244;2023-08-06T14:05:21;14.40;99.90
3940;DHT22;1984;48.312;9.244;2023-08-06T14:07:47;14.40;99.90
3940;DHT22;1984;48.312;9.244;2023-08-06T14:10:12;14.40;99.90
3940;DHT22;1984;48.312;9.244;2023-08-06T14:12:38;14.30;99.90
3940;DHT22;1984;48.312;9.244;2023-08-06T14:15:04;14.30;99.90
3940;DHT22;1984;48.312;9.244;2023-08-06T14:17:30;14.50;99.90
3940;DHT22;1984;48.312;9.244;2023-08-06T14:19:55;14.70;99.90
3940;DHT22;1984;48.312;9.244;2023-08-06T14:22:22;14.60;99.90
3940;DHT22;1984;48.312;9.244;2023-08-06T14:24:48;14.50;99.90
3940;DHT22;1984;48.312;9.244;2023-08-06T14:27:13;14.40;99.90
3940;DHT22;1984;48.312;9.244;2023-08-06T14:29:39;14.20;99.90
3940;DHT22;1984;48.312;9.244;2023-08-06T14:32:04;14.20;99.90
3940;DHT22;1984;48.312;9.244;2023-08-06T14:34:30;14.20;99.90
3940;DHT22;1984;48.312;9.244;2023-08-06T14:36:56;14.20;99.90
3940;DHT22;1984;48.312;9.244;2023-08-06T14:39:22;14.00;99.90
3940;DHT22;1984;48.312;9.244;2023-08-06T14:41:47;13.90;99.90
3940;DHT22;1984;48.312;9.244;2023-08-06T14:44:13;13.90;99.90
3940;DHT22;1984;48.312;9.244;2023-08-06T14:46:39;13.90;99.90
3940;DHT22;1984;48.312;9.244;2023-08-06T14:49:04;14.00;99.90
3940;DHT22;1984;48.312;9.244;2023-08-06T14:51:30;14.10;99.90
3940;DHT22;1984;48.312;9.244;2023-08-06T14:53:56;14.30;99.90
3940;DHT22;1984;48.312;9.244;2023-08-06T14:56:21;14.40;99.90
3940;DHT22;1984;48.312;9.244;2023-08-06T14:58:47;14.50;99.90
3940;DHT22;1984;48.312;9.244;2023-08-06T15:01:13;14.50;99.90
3940;DHT22;1984;48.312;9.244;2023-08-06T15:03:38;14.30;99.90
3940;DHT22;1984;48.312;9.244;2023-08-06T15:06:04;14.10;99.90
3940;DHT22;1984;48.312;9.244;2023-08-06T15:08:29;14.00;99.90
3940;DHT22;1984;48.312;9.244;2023-08-06T15:10:55;13.70;99.90
3940;DHT22;1984;48.312;9.244;2023-08-06T15:13:21;13.40;99.90
3940;DHT22;1984;48.312;9.244;2023-08-06T15:15:47;13.10;99.90
3940;DHT22;1984;48.312;9.244;2023-08-06T15:18:13;12.90;99.90
3940;DHT22;1984;48.312;9.244;2023-08-06T15:20:38;12.90;99.90
3940;DHT22;1984;48.312;9.244;2023-08-06T15:23:04;12.90;99.90
3940;DHT22;1984;48.312;9.244;2023-08-06T15:25:30;13.00;99.90
3940;DHT22;1984;48.312;9.244;2023-08-06T15:27:55;13.20;99.90
3940;DHT22;1984;48.312;9.244;2023-08-06T15:30:21;13.40;99.90
3940;DHT22;1984;48.312;9.244;2023-08-06T15:32:46;13.60;99.90
3940;DHT22;1984;48.312;9.244;2023-08-06T15:35:13;13.70;99.90
3940;DHT22;1984;48.312;9.244;2023-08-06T15:37:39;13.90;99.90
3940;DHT22;1984;48.312;9.244;2023-08-06T15:40:06;14.00;99.90
3940;DHT22;1984;48.312;9.244;2023-08-06T15:42:31;14.00;99.90
3940;DHT22;1984;48.312;9.244;2023-08-06T15:44:57;14.10;99.90
3940;DHT22;1984;48.312;9.244;2023-08-06T15:47:22;14.10;99.90
3940;DHT22;1984;48.312;9.244;2023-08-06T15:49:48;14.10;99.90
3940;DHT22;1984;48.312;9.244;2023-08-06T15:52:13;14.00;99.90
3940;DHT22;1984;48.312;9.244;2023-08-06T15:54:39;13.70;99.90
3940;DHT22;1984;48.312;9.244;2023-08-06T15:57:04;13.60;99.90
3940;DHT22;1984;48.312;9.244;2023-08-06T15:59:31;13.50;99.90
3940;DHT22;1984;48.312;9.244;2023-08-06T16:01:58;13.40;99.90
3940;DHT22;1984;48.312;9.244;2023-08-06T16:04:28;13.40;99.90
3940;DHT22;1984;48.312;9.244;2023-08-06T16:06:54;13.40;99.90